sensor_id;sensor_type;location;lat;lon;timestamp;P1;durP1;ratioP1;P2;durP2;ratioP2
48651;SDS011;34442;52.362;-1.302;2024-03-07T00:02:17;15.02;;;8.25;;
48651;SDS011;34442;52.362;-1.302;2024-03-07T00:04:43;17.15;;;9.25;;
48651;SDS011;34442;52.362;-1.302;2024-03-07T00:07:09;22.33;;;11.95;;
48651;SDS011;34442;52.362;-1.302;2024-03-07T00:09:34;16.85;;;8.65;;
48651;SDS011;34442;52.362;-1.302;2024-03-07T00:12:00;14.75;;;8.30;;
48651;SDS011;34442;52.362;-1.302;2024-03-07T00:14:26;14.90;;;7.72;;
48651;SDS011;34442;52.362;-1.302;2024-03-07T00:16:52;15.00;;;7.30;;
48651;SDS011;34442;52.362;-1.302;2024-03-07T00:19:19;12.98;;;6.60;;
48651;SDS011;34442;52.362;-1.302;2024-03-07T00:21:45;19.00;;;10.50;;
48651;SDS011;34442;52.362;-1.302;2024-03-07T00:24:10;13.98;;;8.07;;
48651;SDS011;34442;52.362;-1.302;2024-03-07T00:26:35;13.15;;;7.90;;
48651;SDS011;34442;52.362;-1.302;2024-03-07T00:29:01;18.30;;;9.02;;
48651;SDS011;34442;52.362;-1.302;2024-03-07T00:31:27;16.35;;;7.32;;
48651;SDS011;34442;52.362;-1.302;2024-03-07T00:33:54;14.15;;;7.57;;
48651;SDS011;34442;52.362;-1.302;2024-03-07T00:36:21;11.13;;;5.97;;
48651;SDS011;34442;52.362;-1.302;2024-03-07T00:38:47;17.55;;;8.65;;
48651;SDS011;34442;52.362;-1.302;2024-03-07T00:41:12;13.18;;;7.13;;
48651;SDS011;34442;52.362;-1.302;2024-03-07T00:43:37;13.02;;;6.68;;
48651;SDS011;34442;52.362;-1.302;2024-03-07T00:46:05;15.65;;;9.13;;
48651;SDS011;34442;52.362;-1.302;2024-03-07T00:48:31;14.00;;;7.55;;
48651;SDS011;34442;52.362;-1.302;2024-03-07T00:50:57;15.35;;;7.90;;
48651;SDS011;34442;52.362;-1.302;2024-03-07T00:53:22;17.73;;;9.25;;
48651;SDS011;34442;52.362;-1.302;2024-03-07T00:55:48;12.45;;;6.85;;
48651;SDS011;34442;52.362;-1.302;2024-03-07T00:58:13;14.63;;;7.63;;
48651;SDS011;34442;52.362;-1.302;2024-03-07T01:00:38;23.08;;;12.02;;
48651;SDS011;34442;52.362;-1.302;2024-03-07T01:03:08;16.15;;;7.75;;
48651;SDS011;34442;52.362;-1.302;2024-03-07T01:05:38;19.20;;;9.63;;
48651;SDS011;34442;52.362;-1.302;2024-03-07T01:08:04;15.77;;;8.63;;
48651;SDS011;34442;52.362;-1.302;2024-03-07T01:10:30;19.27;;;9.75;;
48651;SDS011;34442;52.362;-1.302;2024-03-07T01:12:56;17.42;;;9.63;;
48651;SDS011;34442;52.362;-1.302;2024-03-07T01:15:25;15.52;;;8.20;;
48651;SDS011;34442;52.362;-1.302;2024-03-07T01:17:51;22.58;;;13.05;;
48651;SDS011;34442;52.362;-1.302;2024-03-07T01:20:16;15.63;;;8.88;;
48651;SDS011;34442;52.362;-1.302;2024-03-07T01:22:41;16.83;;;8.68;;
48651;SDS011;34442;52.362;-1.302;2024-03-07T01:25:07;14.60;;;7.15;;
48651;SDS011;34442;52.362;-1.302;2024-03-07T01:27:33;14.20;;;7.40;;
48651;SDS011;34442;52.362;-1.302;2024-03-07T01:29:58;12.48;;;6.30;;
48651;SDS011;34442;52.362;-1.302;2024-03-07T01:32:23;15.65;;;8.57;;
48651;SDS011;34442;52.362;-1.302;2024-03-07T01:34:49;13.40;;;7.45;;
48651;SDS011;34442;52.362;-1.302;2024-03-07T01:37:15;10.60;;;5.97;;
48651;SDS011;34442;52.362;-1.302;2024-03-07T01:39:40;17.52;;;9.48;;
48651;SDS011;34442;52.362;-1.302;2024-03-07T01:42:05;23.95;;;13.32;;
48651;SDS011;34442;52.362;-1.302;2024-03-07T01:44:33;16.65;;;9.68;;
48651;SDS011;34442;52.362;-1.302;2024-03-07T01:46:59;17.63;;;9.07;;
48651;SDS011;34442;52.362;-1.302;2024-03-07T01:49:28;24.85;;;13.73;;
48651;SDS011;34442;52.362;-1.302;2024-03-07T01:51:54;15.88;;;8.80;;
48651;SDS011;34442;52.362;-1.302;2024-03-07T01:54:20;20.85;;;11.00;;
48651;SDS011;34442;52.362;-1.302;2024-03-07T01:56:45;15.50;;;9.25;;
48651;SDS011;34442;52.362;-1.302;2024-03-07T01:59:11;19.08;;;9.05;;
48651;SDS011;34442;52.362;-1.302;2024-03-07T02:01:37;23.98;;;13.55;;
48651;SDS011;34442;52.362;-1.302;2024-03-07T02:04:03;17.73;;;10.30;;
48651;SDS011;34442;52.362;-1.302;2024-03-07T02:06:29;19.27;;;11.10;;
48651;SDS011;34442;52.362;-1.302;2024-03-07T02:08:55;16.63;;;9.45;;
48651;SDS011;34442;52.362;-1.302;2024-03-07T02:11:20;14.93;;;8.20;;
48651;SDS011;34442;52.362;-1.302;2024-03-07T02:13:46;17.83;;;9.65;;
48651;SDS011;34442;52.362;-1.302;2024-03-07T02:16:11;33.63;;;18.08;;
48651;SDS011;34442;52.362;-1.302;2024-03-07T02:18:37;23.95;;;12.73;;
48651;SDS011;34442;52.362;-1.302;2024-03-07T02:21:09;24.38;;;13.90;;
48651;SDS011;34442;52.362;-1.302;2024-03-07T02:23:34;18.08;;;10.48;;
48651;SDS011;34442;52.362;-1.302;2024-03-07T02:26:00;18.92;;;9.65;;
48651;SDS011;34442;52.362;-1.302;2024-03-07T02:28:25;16.92;;;8.90;;
48651;SDS011;34442;52.362;-1.302;2024-03-07T02:30:51;23.15;;;12.88;;
48651;SDS011;34442;52.362;-1.302;2024-03-07T02:33:16;25.67;;;14.15;;
48651;SDS011;34442;52.362;-1.302;2024-03-07T02:35:41;25.15;;;14.23;;
48651;SDS011;34442;52.362;-1.302;2024-03-07T02:38:07;19.02;;;10.77;;
48651;SDS011;34442;52.362;-1.302;2024-03-07T02:40:33;24.85;;;12.48;;
48651;SDS011;34442;52.362;-1.302;2024-03-07T02:42:59;30.95;;;13.85;;
48651;SDS011;34442;52.362;-1.302;2024-03-07T02:45:25;38.53;;;15.95;;
48651;SDS011;34442;52.362;-1.302;2024-03-07T02:47:51;28.48;;;14.02;;
48651;SDS011;34442;52.362;-1.302;2024-03-07T02:50:16;25.70;;;11.90;;
48651;SDS011;34442;52.362;-1.302;2024-03-07T02:52:42;41.35;;;19.95;;
48651;SDS011;34442;52.362;-1.302;2024-03-07T02:55:07;25.27;;;13.30;;
48651;SDS011;34442;52.362;-1.302;2024-03-07T02:57:35;33.75;;;16.20;;
48651;SDS011;34442;52.362;-1.302;2024-03-07T03:00:02;22.45;;;11.55;;
48651;SDS011;34442;52.362;-1.302;2024-03-07T03:02:28;38.67;;;17.38;;
48651;SDS011;34442;52.362;-1.302;2024-03-07T03:04:53;18.27;;;10.32;;
48651;SDS011;34442;52.362;-1.302;2024-03-07T03:07:19;28.40;;;13.52;;
48651;SDS011;34442;52.362;-1.302;2024-03-07T03:09:45;29.30;;;14.88;;
48651;SDS011;34442;52.362;-1.302;2024-03-07T03:12:11;22.20;;;11.32;;
48651;SDS011;34442;52.362;-1.302;2024-03-07T03:14:37;18.10;;;9.43;;
48651;SDS011;34442;52.362;-1.302;2024-03-07T03:17:02;21.58;;;9.75;;
48651;SDS011;34442;52.362;-1.302;2024-03-07T03:19:28;16.25;;;7.70;;
48651;SDS011;34442;52.362;-1.302;2024-03-07T03:21:53;32.05;;;14.07;;
48651;SDS011;34442;52.362;-1.302;2024-03-07T03:24:20;16.70;;;8.48;;
48651;SDS011;34442;52.362;-1.302;2024-03-07T03:26:46;16.90;;;9.13;;
48651;SDS011;34442;52.362;-1.302;2024-03-07T03:29:11;14.25;;;6.70;;
48651;SDS011;34442;52.362;-1.302;2024-03-07T03:31:38;34.55;;;17.48;;
48651;SDS011;34442;52.362;-1.302;2024-03-07T03:34:04;21.98;;;11.40;;
48651;SDS011;34442;52.362;-1.302;2024-03-07T03:36:30;27.98;;;15.48;;
48651;SDS011;34442;52.362;-1.302;2024-03-07T03:38:55;34.53;;;17.83;;
48651;SDS011;34442;52.362;-1.302;2024-03-07T03:41:21;24.52;;;12.10;;
48651;SDS011;34442;52.362;-1.302;2024-03-07T03:43:47;17.90;;;9.18;;
48651;SDS011;34442;52.362;-1.302;2024-03-07T03:46:13;17.73;;;8.85;;
48651;SDS011;34442;52.362;-1.302;2024-03-07T03:48:39;20.50;;;11.30;;
48651;SDS011;34442;52.362;-1.302;2024-03-07T03:51:08;32.65;;;16.55;;
48651;SDS011;34442;52.362;-1.302;2024-03-07T03:53:34;23.23;;;12.10;;
48651;SDS011;34442;52.362;-1.302;2024-03-07T03:56:00;23.00;;;12.40;;
48651;SDS011;34442;52.362;-1.302;2024-03-07T03:58:25;27.50;;;13.52;;
48651;SDS011;34442;52.362;-1.302;2024-03-07T04:00:51;21.02;;;10.30;;
48651;SDS011;34442;52.362;-1.302;2024-03-07T04:03:16;23.65;;;10.88;;
48651;SDS011;34442;52.362;-1.302;2024-03-07T04:05:42;25.35;;;13.00;;
48651;SDS011;34442;52.362;-1.302;2024-03-07T04:08:07;22.98;;;12.02;;
48651;SDS011;34442;52.362;-1.302;2024-03-07T04:10:34;14.45;;;8.80;;
48651;SDS011;34442;52.362;-1.302;2024-03-07T04:13:00;20.35;;;10.38;;
48651;SDS011;34442;52.362;-1.302;2024-03-07T04:15:25;15.45;;;7.60;;
48651;SDS011;34442;52.362;-1.302;2024-03-07T04:17:52;17.17;;;9.02;;
48651;SDS011;34442;52.362;-1.302;2024-03-07T04:20:18;24.35;;;11.90;;
48651;SDS011;34442;52.362;-1.302;2024-03-07T04:22:44;25.70;;;13.18;;
48651;SDS011;34442;52.362;-1.302;2024-03-07T04:25:09;23.33;;;11.68;;
48651;SDS011;34442;52.362;-1.302;2024-03-07T04:27:35;24.25;;;10.38;;
48651;SDS011;34442;52.362;-1.302;2024-03-07T04:30:05;27.05;;;14.68;;
48651;SDS011;34442;52.362;-1.302;2024-03-07T04:32:31;18.02;;;8.73;;
48651;SDS011;34442;52.362;-1.302;2024-03-07T04:34:57;19.10;;;9.80;;
48651;SDS011;34442;52.362;-1.302;2024-03-07T04:37:23;32.50;;;15.55;;
48651;SDS011;34442;52.362;-1.302;2024-03-07T04:39:48;25.65;;;11.85;;
48651;SDS011;34442;52.362;-1.302;2024-03-07T04:42:14;25.17;;;12.95;;
48651;SDS011;34442;52.362;-1.302;2024-03-07T04:44:40;25.13;;;11.05;;
48651;SDS011;34442;52.362;-1.302;2024-03-07T04:47:06;19.15;;;8.70;;
48651;SDS011;34442;52.362;-1.302;2024-03-07T04:49:32;27.52;;;11.82;;
48651;SDS011;34442;52.362;-1.302;2024-03-07T04:51:59;26.42;;;13.60;;
48651;SDS011;34442;52.362;-1.302;2024-03-07T04:54:27;23.42;;;11.60;;
48651;SDS011;34442;52.362;-1.302;2024-03-07T04:56:53;19.25;;;8.35;;
48651;SDS011;34442;52.362;-1.302;2024-03-07T04:59:20;17.90;;;8.50;;
48651;SDS011;34442;52.362;-1.302;2024-03-07T05:01:47;27.67;;;13.23;;
48651;SDS011;34442;52.362;-1.302;2024-03-07T05:04:14;23.63;;;10.88;;
48651;SDS011;34442;52.362;-1.302;2024-03-07T05:06:40;20.55;;;10.20;;
48651;SDS011;34442;52.362;-1.302;2024-03-07T05:09:07;21.05;;;8.77;;
48651;SDS011;34442;52.362;-1.302;2024-03-07T05:11:34;20.33;;;8.50;;
48651;SDS011;34442;52.362;-1.302;2024-03-07T05:14:00;20.25;;;9.32;;
48651;SDS011;34442;52.362;-1.302;2024-03-07T05:16:27;25.05;;;12.90;;
48651;SDS011;34442;52.362;-1.302;2024-03-07T05:18:52;20.42;;;10.48;;
48651;SDS011;34442;52.362;-1.302;2024-03-07T05:21:18;14.98;;;7.68;;
48651;SDS011;34442;52.362;-1.302;2024-03-07T05:23:56;19.27;;;9.60;;
48651;SDS011;34442;52.362;-1.302;2024-03-07T05:26:22;23.85;;;10.60;;
48651;SDS011;34442;52.362;-1.302;2024-03-07T05:28:48;17.15;;;8.63;;
48651;SDS011;34442;52.362;-1.302;2024-03-07T05:31:13;17.00;;;8.73;;
48651;SDS011;34442;52.362;-1.302;2024-03-07T05:33:39;37.92;;;18.05;;
48651;SDS011;34442;52.362;-1.302;2024-03-07T05:36:06;34.13;;;16.42;;
48651;SDS011;34442;52.362;-1.302;2024-03-07T05:38:44;24.30;;;11.63;;
48651;SDS011;34442;52.362;-1.302;2024-03-07T05:41:13;22.92;;;11.93;;
48651;SDS011;34442;52.362;-1.302;2024-03-07T05:43:38;18.70;;;10.48;;
48651;SDS011;34442;52.362;-1.302;2024-03-07T05:46:04;21.02;;;10.23;;
48651;SDS011;34442;52.362;-1.302;2024-03-07T05:48:32;23.27;;;11.63;;
48651;SDS011;34442;52.362;-1.302;2024-03-07T05:50:58;22.83;;;11.20;;
48651;SDS011;34442;52.362;-1.302;2024-03-07T05:53:24;21.15;;;9.77;;
48651;SDS011;34442;52.362;-1.302;2024-03-07T05:55:49;16.30;;;8.20;;
48651;SDS011;34442;52.362;-1.302;2024-03-07T05:58:15;19.92;;;9.68;;
48651;SDS011;34442;52.362;-1.302;2024-03-07T06:00:44;31.35;;;14.48;;
48651;SDS011;34442;52.362;-1.302;2024-03-07T06:03:18;19.10;;;9.23;;
48651;SDS011;34442;52.362;-1.302;2024-03-07T06:05:49;24.50;;;11.43;;
48651;SDS011;34442;52.362;-1.302;2024-03-07T06:08:16;22.83;;;10.07;;
48651;SDS011;34442;52.362;-1.302;2024-03-07T06:10:43;14.90;;;7.68;;
48651;SDS011;34442;52.362;-1.302;2024-03-07T06:13:09;22.00;;;10.07;;
48651;SDS011;34442;52.362;-1.302;2024-03-07T06:15:36;18.60;;;8.07;;
48651;SDS011;34442;52.362;-1.302;2024-03-07T06:18:03;15.43;;;7.25;;
48651;SDS011;34442;52.362;-1.302;2024-03-07T06:20:29;21.13;;;11.82;;
48651;SDS011;34442;52.362;-1.302;2024-03-07T06:22:55;29.50;;;11.80;;
48651;SDS011;34442;52.362;-1.302;2024-03-07T06:25:22;25.20;;;11.77;;
48651;SDS011;34442;52.362;-1.302;2024-03-07T06:28:04;31.25;;;13.43;;
48651;SDS011;34442;52.362;-1.302;2024-03-07T06:30:37;41.03;;;17.88;;
48651;SDS011;34442;52.362;-1.302;2024-03-07T06:33:04;24.70;;;10.80;;
48651;SDS011;34442;52.362;-1.302;2024-03-07T06:35:30;25.90;;;13.25;;
48651;SDS011;34442;52.362;-1.302;2024-03-07T06:37:56;22.27;;;10.00;;
48651;SDS011;34442;52.362;-1.302;2024-03-07T06:40:21;24.05;;;11.55;;
48651;SDS011;34442;52.362;-1.302;2024-03-07T06:42:48;52.50;;;21.70;;
48651;SDS011;34442;52.362;-1.302;2024-03-07T06:45:14;37.97;;;16.65;;
48651;SDS011;34442;52.362;-1.302;2024-03-07T06:47:41;31.30;;;14.15;;
48651;SDS011;34442;52.362;-1.302;2024-03-07T06:50:06;28.88;;;12.75;;
48651;SDS011;34442;52.362;-1.302;2024-03-07T06:52:34;43.20;;;20.10;;
48651;SDS011;34442;52.362;-1.302;2024-03-07T06:55:00;31.02;;;14.73;;
48651;SDS011;34442;52.362;-1.302;2024-03-07T06:57:27;41.33;;;19.30;;
48651;SDS011;34442;52.362;-1.302;2024-03-07T06:59:53;28.40;;;12.93;;
48651;SDS011;34442;52.362;-1.302;2024-03-07T07:02:20;42.35;;;20.65;;
48651;SDS011;34442;52.362;-1.302;2024-03-07T07:04:45;32.08;;;15.30;;
48651;SDS011;34442;52.362;-1.302;2024-03-07T07:07:12;49.60;;;23.55;;
48651;SDS011;34442;52.362;-1.302;2024-03-07T07:09:39;42.38;;;20.08;;
48651;SDS011;34442;52.362;-1.302;2024-03-07T07:12:05;52.92;;;24.77;;
48651;SDS011;34442;52.362;-1.302;2024-03-07T07:14:31;30.67;;;15.23;;
48651;SDS011;34442;52.362;-1.302;2024-03-07T07:16:57;37.60;;;17.10;;
48651;SDS011;34442;52.362;-1.302;2024-03-07T07:19:24;44.60;;;21.27;;
48651;SDS011;34442;52.362;-1.302;2024-03-07T07:21:49;39.33;;;17.52;;
48651;SDS011;34442;52.362;-1.302;2024-03-07T07:24:18;37.60;;;17.88;;
48651;SDS011;34442;52.362;-1.302;2024-03-07T07:26:46;38.80;;;17.55;;
48651;SDS011;34442;52.362;-1.302;2024-03-07T07:29:12;37.35;;;17.85;;
48651;SDS011;34442;52.362;-1.302;2024-03-07T07:31:37;34.88;;;17.10;;
48651;SDS011;34442;52.362;-1.302;2024-03-07T07:34:03;28.25;;;14.48;;
48651;SDS011;34442;52.362;-1.302;2024-03-07T07:36:29;26.90;;;12.80;;
48651;SDS011;34442;52.362;-1.302;2024-03-07T07:38:58;29.23;;;13.98;;
48651;SDS011;34442;52.362;-1.302;2024-03-07T07:41:24;24.33;;;11.93;;
48651;SDS011;34442;52.362;-1.302;2024-03-07T07:43:49;22.40;;;10.43;;
48651;SDS011;34442;52.362;-1.302;2024-03-07T07:46:16;33.97;;;16.45;;
48651;SDS011;34442;52.362;-1.302;2024-03-07T07:48:42;25.15;;;12.48;;
48651;SDS011;34442;52.362;-1.302;2024-03-07T07:51:07;27.25;;;13.10;;
48651;SDS011;34442;52.362;-1.302;2024-03-07T07:53:33;29.45;;;12.70;;
48651;SDS011;34442;52.362;-1.302;2024-03-07T07:55:59;44.00;;;20.15;;
48651;SDS011;34442;52.362;-1.302;2024-03-07T07:58:25;35.22;;;18.45;;
48651;SDS011;34442;52.362;-1.302;2024-03-07T08:00:50;25.35;;;12.63;;
48651;SDS011;34442;52.362;-1.302;2024-03-07T08:03:16;28.00;;;14.02;;
48651;SDS011;34442;52.362;-1.302;2024-03-07T08:05:43;29.98;;;13.80;;
48651;SDS011;34442;52.362;-1.302;2024-03-07T08:08:08;22.80;;;11.60;;
48651;SDS011;34442;52.362;-1.302;2024-03-07T08:10:38;30.25;;;15.32;;
48651;SDS011;34442;52.362;-1.302;2024-03-07T08:13:06;28.20;;;13.35;;
48651;SDS011;34442;52.362;-1.302;2024-03-07T08:15:31;39.90;;;19.27;;
48651;SDS011;34442;52.362;-1.302;2024-03-07T08:17:57;29.88;;;14.57;;
48651;SDS011;34442;52.362;-1.302;2024-03-07T08:20:25;29.45;;;13.18;;
48651;SDS011;34442;52.362;-1.302;2024-03-07T08:22:54;23.30;;;11.90;;
48651;SDS011;34442;52.362;-1.302;2024-03-07T08:25:20;24.88;;;13.57;;
48651;SDS011;34442;52.362;-1.302;2024-03-07T08:27:50;18.48;;;9.80;;
48651;SDS011;34442;52.362;-1.302;2024-03-07T08:30:17;26.27;;;11.63;;
48651;SDS011;34442;52.362;-1.302;2024-03-07T08:32:43;21.17;;;11.02;;
48651;SDS011;34442;52.362;-1.302;2024-03-07T08:35:11;30.40;;;13.95;;
48651;SDS011;34442;52.362;-1.302;2024-03-07T08:37:40;19.05;;;9.30;;
48651;SDS011;34442;52.362;-1.302;2024-03-07T08:40:10;19.52;;;10.27;;
48651;SDS011;34442;52.362;-1.302;2024-03-07T08:42:38;29.42;;;14.20;;
48651;SDS011;34442;52.362;-1.302;2024-03-07T08:45:06;26.13;;;12.73;;
48651;SDS011;34442;52.362;-1.302;2024-03-07T08:47:35;16.27;;;7.93;;
48651;SDS011;34442;52.362;-1.302;2024-03-07T08:50:02;16.33;;;8.55;;
48651;SDS011;34442;52.362;-1.302;2024-03-07T08:52:31;29.95;;;15.63;;
48651;SDS011;34442;52.362;-1.302;2024-03-07T08:54:57;15.25;;;7.50;;
48651;SDS011;34442;52.362;-1.302;2024-03-07T08:57:22;17.15;;;9.43;;
48651;SDS011;34442;52.362;-1.302;2024-03-07T08:59:48;28.90;;;15.23;;
48651;SDS011;34442;52.362;-1.302;2024-03-07T09:02:14;26.55;;;13.27;;
48651;SDS011;34442;52.362;-1.302;2024-03-07T09:04:40;21.27;;;10.43;;
48651;SDS011;34442;52.362;-1.302;2024-03-07T09:07:06;16.80;;;9.77;;
48651;SDS011;34442;52.362;-1.302;2024-03-07T09:09:32;16.52;;;8.85;;
48651;SDS011;34442;52.362;-1.302;2024-03-07T09:11:59;17.73;;;9.43;;
48651;SDS011;34442;52.362;-1.302;2024-03-07T09:14:28;15.90;;;9.05;;
48651;SDS011;34442;52.362;-1.302;2024-03-07T09:16:53;15.98;;;9.52;;
48651;SDS011;34442;52.362;-1.302;2024-03-07T09:19:19;26.88;;;14.73;;
48651;SDS011;34442;52.362;-1.302;2024-03-07T09:21:48;22.90;;;11.48;;
48651;SDS011;34442;52.362;-1.302;2024-03-07T09:24:15;16.00;;;7.97;;
48651;SDS011;34442;52.362;-1.302;2024-03-07T09:26:41;21.45;;;10.40;;
48651;SDS011;34442;52.362;-1.302;2024-03-07T09:29:06;25.85;;;13.55;;
48651;SDS011;34442;52.362;-1.302;2024-03-07T09:31:32;23.45;;;12.38;;
48651;SDS011;34442;52.362;-1.302;2024-03-07T09:33:58;26.90;;;12.98;;
48651;SDS011;34442;52.362;-1.302;2024-03-07T09:36:24;22.52;;;10.68;;
48651;SDS011;34442;52.362;-1.302;2024-03-07T09:38:50;24.48;;;13.32;;
48651;SDS011;34442;52.362;-1.302;2024-03-07T09:41:16;28.83;;;14.82;;
48651;SDS011;34442;52.362;-1.302;2024-03-07T09:43:43;26.88;;;12.55;;
48651;SDS011;34442;52.362;-1.302;2024-03-07T09:46:11;25.08;;;13.40;;
48651;SDS011;34442;52.362;-1.302;2024-03-07T09:48:38;18.55;;;10.07;;
48651;SDS011;34442;52.362;-1.302;2024-03-07T09:51:04;26.13;;;12.13;;
48651;SDS011;34442;52.362;-1.302;2024-03-07T09:53:32;21.08;;;11.13;;
48651;SDS011;34442;52.362;-1.302;2024-03-07T09:55:59;32.45;;;15.10;;
48651;SDS011;34442;52.362;-1.302;2024-03-07T09:58:26;19.08;;;9.80;;
48651;SDS011;34442;52.362;-1.302;2024-03-07T10:00:56;27.25;;;14.27;;
48651;SDS011;34442;52.362;-1.302;2024-03-07T10:03:23;29.15;;;15.35;;
48651;SDS011;34442;52.362;-1.302;2024-03-07T10:05:54;18.20;;;9.25;;
48651;SDS011;34442;52.362;-1.302;2024-03-07T10:08:19;27.05;;;12.98;;
48651;SDS011;34442;52.362;-1.302;2024-03-07T10:10:47;30.15;;;15.38;;
48651;SDS011;34442;52.362;-1.302;2024-03-07T10:13:14;25.77;;;14.68;;
48651;SDS011;34442;52.362;-1.302;2024-03-07T10:15:39;30.50;;;15.57;;
48651;SDS011;34442;52.362;-1.302;2024-03-07T10:18:08;25.83;;;13.43;;
48651;SDS011;34442;52.362;-1.302;2024-03-07T10:20:35;27.52;;;14.77;;
48651;SDS011;34442;52.362;-1.302;2024-03-07T10:23:02;25.17;;;11.95;;
48651;SDS011;34442;52.362;-1.302;2024-03-07T10:25:28;24.33;;;11.50;;
48651;SDS011;34442;52.362;-1.302;2024-03-07T10:27:54;22.17;;;12.07;;
48651;SDS011;34442;52.362;-1.302;2024-03-07T10:30:20;30.17;;;16.45;;
48651;SDS011;34442;52.362;-1.302;2024-03-07T10:32:54;24.98;;;13.20;;
48651;SDS011;34442;52.362;-1.302;2024-03-07T10:35:21;24.80;;;13.30;;
48651;SDS011;34442;52.362;-1.302;2024-03-07T10:37:49;26.75;;;13.43;;
48651;SDS011;34442;52.362;-1.302;2024-03-07T10:40:15;21.88;;;11.55;;
48651;SDS011;34442;52.362;-1.302;2024-03-07T10:42:45;22.63;;;12.48;;
48651;SDS011;34442;52.362;-1.302;2024-03-07T10:45:16;20.73;;;10.18;;
48651;SDS011;34442;52.362;-1.302;2024-03-07T10:47:44;23.30;;;11.63;;
48651;SDS011;34442;52.362;-1.302;2024-03-07T10:53:10;36.70;;;18.02;;
48651;SDS011;34442;52.362;-1.302;2024-03-07T10:55:45;37.42;;;18.90;;
48651;SDS011;34442;52.362;-1.302;2024-03-07T10:58:23;36.88;;;17.63;;
48651;SDS011;34442;52.362;-1.302;2024-03-07T11:01:04;41.20;;;19.70;;
48651;SDS011;34442;52.362;-1.302;2024-03-07T11:03:34;36.83;;;19.00;;
48651;SDS011;34442;52.362;-1.302;2024-03-07T11:06:00;36.75;;;17.95;;
48651;SDS011;34442;52.362;-1.302;2024-03-07T11:08:32;36.55;;;18.17;;
48651;SDS011;34442;52.362;-1.302;2024-03-07T11:10:59;25.52;;;13.48;;
48651;SDS011;34442;52.362;-1.302;2024-03-07T11:13:25;34.60;;;16.52;;
48651;SDS011;34442;52.362;-1.302;2024-03-07T11:15:51;53.42;;;24.10;;
48651;SDS011;34442;52.362;-1.302;2024-03-07T11:18:22;52.72;;;24.40;;
48651;SDS011;34442;52.362;-1.302;2024-03-07T11:20:49;53.25;;;26.08;;
48651;SDS011;34442;52.362;-1.302;2024-03-07T11:23:27;47.33;;;21.35;;
48651;SDS011;34442;52.362;-1.302;2024-03-07T11:26:09;55.45;;;26.85;;
48651;SDS011;34442;52.362;-1.302;2024-03-07T11:28:39;51.15;;;21.30;;
48651;SDS011;34442;52.362;-1.302;2024-03-07T11:31:15;50.00;;;23.50;;
48651;SDS011;34442;52.362;-1.302;2024-03-07T11:36:47;60.80;;;28.63;;
48651;SDS011;34442;52.362;-1.302;2024-03-07T11:39:42;49.95;;;22.45;;
48651;SDS011;34442;52.362;-1.302;2024-03-07T11:42:25;37.38;;;18.88;;
48651;SDS011;34442;52.362;-1.302;2024-03-07T11:44:51;65.30;;;29.40;;
48651;SDS011;34442;52.362;-1.302;2024-03-07T11:47:21;57.88;;;25.35;;
48651;SDS011;34442;52.362;-1.302;2024-03-07T11:49:49;51.70;;;22.88;;
48651;SDS011;34442;52.362;-1.302;2024-03-07T11:52:17;34.05;;;16.60;;
48651;SDS011;34442;52.362;-1.302;2024-03-07T11:54:43;59.00;;;26.50;;
48651;SDS011;34442;52.362;-1.302;2024-03-07T11:57:12;61.10;;;27.80;;
48651;SDS011;34442;52.362;-1.302;2024-03-07T11:59:40;56.97;;;24.60;;
48651;SDS011;34442;52.362;-1.302;2024-03-07T12:02:10;47.28;;;19.42;;
48651;SDS011;34442;52.362;-1.302;2024-03-07T12:04:42;43.03;;;20.77;;
48651;SDS011;34442;52.362;-1.302;2024-03-07T12:07:09;44.10;;;19.73;;
48651;SDS011;34442;52.362;-1.302;2024-03-07T12:09:38;58.00;;;27.60;;
48651;SDS011;34442;52.362;-1.302;2024-03-07T12:12:07;58.90;;;26.05;;
48651;SDS011;34442;52.362;-1.302;2024-03-07T12:14:34;36.75;;;16.80;;
48651;SDS011;34442;52.362;-1.302;2024-03-07T12:17:02;39.45;;;19.13;;
48651;SDS011;34442;52.362;-1.302;2024-03-07T12:19:34;56.08;;;25.75;;
48651;SDS011;34442;52.362;-1.302;2024-03-07T12:22:00;65.82;;;28.80;;
48651;SDS011;34442;52.362;-1.302;2024-03-07T12:24:28;46.67;;;21.05;;
48651;SDS011;34442;52.362;-1.302;2024-03-07T12:27:07;50.03;;;22.38;;
48651;SDS011;34442;52.362;-1.302;2024-03-07T12:29:35;55.88;;;25.38;;
48651;SDS011;34442;52.362;-1.302;2024-03-07T12:32:04;59.20;;;25.67;;
48651;SDS011;34442;52.362;-1.302;2024-03-07T12:34:36;58.47;;;26.70;;
48651;SDS011;34442;52.362;-1.302;2024-03-07T12:37:11;58.17;;;26.05;;
48651;SDS011;34442;52.362;-1.302;2024-03-07T12:39:41;40.08;;;18.90;;
48651;SDS011;34442;52.362;-1.302;2024-03-07T12:42:17;52.60;;;24.27;;
48651;SDS011;34442;52.362;-1.302;2024-03-07T12:44:44;61.35;;;27.95;;
48651;SDS011;34442;52.362;-1.302;2024-03-07T12:47:14;53.38;;;27.15;;
48651;SDS011;34442;52.362;-1.302;2024-03-07T12:49:41;66.03;;;29.08;;
48651;SDS011;34442;52.362;-1.302;2024-03-07T12:52:10;66.35;;;32.28;;
48651;SDS011;34442;52.362;-1.302;2024-03-07T12:54:40;70.53;;;33.67;;
48651;SDS011;34442;52.362;-1.302;2024-03-07T12:57:15;69.38;;;32.25;;
48651;SDS011;34442;52.362;-1.302;2024-03-07T12:59:40;63.17;;;30.52;;
48651;SDS011;34442;52.362;-1.302;2024-03-07T13:02:10;68.45;;;31.00;;
48651;SDS011;34442;52.362;-1.302;2024-03-07T13:04:36;64.40;;;29.67;;
48651;SDS011;34442;52.362;-1.302;2024-03-07T13:07:03;59.58;;;28.08;;
48651;SDS011;34442;52.362;-1.302;2024-03-07T13:09:31;55.40;;;24.88;;
48651;SDS011;34442;52.362;-1.302;2024-03-07T13:11:59;55.78;;;26.00;;
48651;SDS011;34442;52.362;-1.302;2024-03-07T13:14:34;63.95;;;28.05;;
48651;SDS011;34442;52.362;-1.302;2024-03-07T13:17:01;64.75;;;28.00;;
48651;SDS011;34442;52.362;-1.302;2024-03-07T13:19:27;66.35;;;31.38;;
48651;SDS011;34442;52.362;-1.302;2024-03-07T13:21:54;49.28;;;23.42;;
48651;SDS011;34442;52.362;-1.302;2024-03-07T13:24:21;64.13;;;29.90;;
48651;SDS011;34442;52.362;-1.302;2024-03-07T13:26:47;50.13;;;23.30;;
48651;SDS011;34442;52.362;-1.302;2024-03-07T13:29:16;47.67;;;23.02;;
48651;SDS011;34442;52.362;-1.302;2024-03-07T13:31:44;51.97;;;24.17;;
48651;SDS011;34442;52.362;-1.302;2024-03-07T13:34:10;52.13;;;26.92;;
48651;SDS011;34442;52.362;-1.302;2024-03-07T13:36:41;47.40;;;24.40;;
48651;SDS011;34442;52.362;-1.302;2024-03-07T13:39:11;47.03;;;21.20;;
48651;SDS011;34442;52.362;-1.302;2024-03-07T13:41:37;43.20;;;23.48;;
48651;SDS011;34442;52.362;-1.302;2024-03-07T13:44:04;35.13;;;18.92;;
48651;SDS011;34442;52.362;-1.302;2024-03-07T13:46:30;45.78;;;23.38;;
48651;SDS011;34442;52.362;-1.302;2024-03-07T13:48:57;47.42;;;24.52;;
48651;SDS011;34442;52.362;-1.302;2024-03-07T13:51:37;40.72;;;23.55;;
48651;SDS011;34442;52.362;-1.302;2024-03-07T13:54:04;37.13;;;20.50;;
48651;SDS011;34442;52.362;-1.302;2024-03-07T13:57:05;34.70;;;19.60;;
48651;SDS011;34442;52.362;-1.302;2024-03-07T14:02:25;38.40;;;19.63;;
48651;SDS011;34442;52.362;-1.302;2024-03-07T14:07:50;33.13;;;16.35;;
48651;SDS011;34442;52.362;-1.302;2024-03-07T14:13:48;35.28;;;19.00;;
48651;SDS011;34442;52.362;-1.302;2024-03-07T14:33:18;30.73;;;17.65;;
48651;SDS011;34442;52.362;-1.302;2024-03-07T14:36:07;28.90;;;17.70;;
48651;SDS011;34442;52.362;-1.302;2024-03-07T14:38:49;26.55;;;15.25;;
48651;SDS011;34442;52.362;-1.302;2024-03-07T14:41:19;21.35;;;13.60;;
48651;SDS011;34442;52.362;-1.302;2024-03-07T14:43:48;25.08;;;14.50;;
48651;SDS011;34442;52.362;-1.302;2024-03-07T14:46:15;28.35;;;17.38;;